Decoded Metar for MMZC (ZACATECAS in MEXICO) (IATA:ZCL) | Meteo·Mobile Aviation Weather
aviador You're here:

MMZC Decoded Metar

ZACATECAS in MEXICO
Report Time2018-09-19 13:40:00
UTC Time2018-09-19 14:52:53
Flight Rules Old
WindCalm
Visibility9999 m
Phenomena:N/A
Clouds:Broken 150 Hf
Broken 200 Hf
Expected CloudBase > 400 ft AGL from Temp-Dew spread
Ceiling15,000 ft
Temp14°C (ISA +13)
Dew Point13°C (94% RH)
QNH1024 hPa
Density Alt8,533 ft
Elevation7,142 ft
Report Wrong Elevation
Raw Report
MMZC 191340Z 00000KT 10SM BKN150 BKN200 14/13 A3024 RMK 8/031=

Extra information for MMZC:More info

Metar Taf Metar & Taf Last 4 Metars F.Rules Stats Wind Profile Meteogram Temp Stats Airport Information Weather charts Add Link Nearby VenuesMetar ALERT Operation Metar Decoded Social comments